createdAt,value
2023-04-11T00:01:49.623Z,59.78
2023-04-11T00:04:17.671Z,60.58
2023-04-11T00:06:45.144Z,60.44
2023-04-11T00:09:12.620Z,61.20
2023-04-11T00:11:39.907Z,60.93
2023-04-11T00:14:07.559Z,61.57
2023-04-11T00:16:35.845Z,61.26
2023-04-11T00:19:03.300Z,60.37
2023-04-11T00:21:30.565Z,61.44
2023-04-11T00:23:57.829Z,60.78
2023-04-11T00:26:26.053Z,61.22
2023-04-11T00:28:53.573Z,61.71
2023-04-11T00:31:21.168Z,62.41
2023-04-11T00:33:48.526Z,61.46
2023-04-11T00:36:16.341Z,61.69
2023-04-11T00:38:44.716Z,61.89
2023-04-11T00:41:12.214Z,61.65
2023-04-11T00:43:39.519Z,61.68
2023-04-11T00:46:09.167Z,61.43
2023-04-11T00:48:36.934Z,61.37
2023-04-11T00:51:04.334Z,62.41
2023-04-11T00:53:32.913Z,62.49
2023-04-11T00:56:00.617Z,63.00
2023-04-11T00:58:28.573Z,62.97
2023-04-11T01:00:56.000Z,62.76
2023-04-11T01:03:23.822Z,62.42
2023-04-11T01:05:53.778Z,62.40
2023-04-11T01:08:22.519Z,62.45
2023-04-11T01:10:50.529Z,62.65
2023-04-11T01:13:20.668Z,62.65
2023-04-11T01:15:48.182Z,62.35
2023-04-11T01:18:15.675Z,62.28
2023-04-11T01:20:43.128Z,63.31
2023-04-11T01:23:11.007Z,62.98
2023-04-11T01:25:38.415Z,62.56
2023-04-11T01:28:06.537Z,62.40
2023-04-11T01:30:33.869Z,61.76
2023-04-11T01:33:01.346Z,62.07
2023-04-11T01:35:28.806Z,61.73
2023-04-11T01:37:56.620Z,61.57
2023-04-11T01:40:24.542Z,61.03
2023-04-11T01:42:52.892Z,60.45
2023-04-11T01:45:22.383Z,60.12
2023-04-11T01:47:51.884Z,60.80
2023-04-11T01:50:19.249Z,61.84
2023-04-11T01:52:48.350Z,61.70
2023-04-11T01:55:16.237Z,62.07
2023-04-11T01:57:43.796Z,62.60
2023-04-11T02:00:11.712Z,62.73
2023-04-11T02:02:42.015Z,62.31
2023-04-11T02:05:11.075Z,62.27
2023-04-11T02:07:38.447Z,62.14
2023-04-11T02:10:06.581Z,62.46
2023-04-11T02:12:33.939Z,61.91
2023-04-11T02:15:01.352Z,61.83
2023-04-11T02:17:31.354Z,61.70
2023-04-11T02:19:58.869Z,61.93
2023-04-11T02:22:26.214Z,61.41
2023-04-11T02:24:53.585Z,61.28
2023-04-11T02:27:20.949Z,61.82
2023-04-11T02:29:48.303Z,60.98
2023-04-11T02:32:16.632Z,61.31
2023-04-11T02:34:46.595Z,62.29
2023-04-11T02:37:13.949Z,62.02
2023-04-11T02:39:41.294Z,63.13
2023-04-11T02:42:08.858Z,63.83
2023-04-11T02:44:36.239Z,63.49
2023-04-11T02:47:04.678Z,63.99
2023-04-11T02:49:32.378Z,64.50
2023-04-11T02:52:00.614Z,64.55
2023-04-11T02:54:28.139Z,65.49
2023-04-11T02:56:56.730Z,65.42
2023-04-11T02:59:24.440Z,66.18
2023-04-11T03:01:58.190Z,66.46
2023-04-11T03:04:26.577Z,66.12
2023-04-11T03:07:01.700Z,65.13
2023-04-11T03:09:29.914Z,65.55
2023-04-11T03:11:57.536Z,65.44
2023-04-11T03:14:24.998Z,65.39
2023-04-11T03:16:52.334Z,65.69
2023-04-11T03:19:19.721Z,65.17
2023-04-11T03:21:47.088Z,64.71
2023-04-11T03:24:14.461Z,64.88
2023-04-11T03:26:42.795Z,65.01
2023-04-11T03:29:13.974Z,64.60
2023-04-11T03:31:54.786Z,64.37
2023-04-11T03:34:23.511Z,64.54
2023-04-11T03:36:51.358Z,64.53
2023-04-11T03:39:21.734Z,64.81
2023-04-11T03:41:51.140Z,64.82
2023-04-11T03:44:19.467Z,64.68
2023-04-11T03:46:47.871Z,64.82
2023-04-11T03:49:15.387Z,65.13
2023-04-11T03:51:44.530Z,64.36
2023-04-11T03:54:11.813Z,64.01
2023-04-11T03:56:41.507Z,63.76
2023-04-11T03:59:15.792Z,63.35
2023-04-11T04:01:54.442Z,63.85
2023-04-11T04:04:22.026Z,64.15
2023-04-11T04:06:57.587Z,64.43
2023-04-11T04:09:32.394Z,65.86
2023-04-11T04:11:59.750Z,65.90
2023-04-11T04:14:39.119Z,66.31
2023-04-11T04:17:07.020Z,66.82
2023-04-11T04:19:34.320Z,66.68
2023-04-11T04:22:02.269Z,66.48
2023-04-11T04:24:38.382Z,66.37
2023-04-11T04:27:18.171Z,66.56
2023-04-11T04:29:48.574Z,66.49
2023-04-11T04:32:24.963Z,67.23
2023-04-11T04:34:58.834Z,67.15
2023-04-11T04:37:29.334Z,66.91
2023-04-11T04:40:15.970Z,66.70
2023-04-11T04:43:19.242Z,67.76
2023-04-11T04:45:56.601Z,68.64
2023-04-11T04:48:29.083Z,68.55
2023-04-11T04:50:56.407Z,67.97
2023-04-11T04:53:23.811Z,67.84
2023-04-11T04:55:56.396Z,67.55
2023-04-11T04:58:24.804Z,67.16
2023-04-11T05:00:56.190Z,67.44
2023-04-11T05:03:28.013Z,67.60
2023-04-11T05:05:56.804Z,67.58
2023-04-11T05:08:26.151Z,67.88
2023-04-11T05:10:56.527Z,67.86
2023-04-11T05:13:24.252Z,68.22
2023-04-11T05:15:51.560Z,68.00
2023-04-11T05:18:19.582Z,67.70
2023-04-11T05:20:46.963Z,66.99
2023-04-11T05:23:21.153Z,67.14
2023-04-11T05:25:50.417Z,66.18
2023-04-11T05:28:17.823Z,66.67
2023-04-11T05:30:45.736Z,65.95
2023-04-11T05:33:15.093Z,65.56
2023-04-11T05:35:44.107Z,66.15
2023-04-11T05:38:11.657Z,66.25
2023-04-11T05:40:40.343Z,65.94
2023-04-11T05:43:08.572Z,65.85
2023-04-11T05:45:35.957Z,65.53
2023-04-11T05:48:07.988Z,64.26
2023-04-11T05:50:36.062Z,64.11
2023-04-11T05:53:03.441Z,63.80
2023-04-11T05:55:30.762Z,63.63
2023-04-11T05:57:58.038Z,63.21
2023-04-11T06:00:26.184Z,63.07
2023-04-11T06:02:54.976Z,62.42
2023-04-11T06:05:22.396Z,62.25
2023-04-11T06:07:51.015Z,61.86
2023-04-11T06:10:18.328Z,62.10
2023-04-11T06:12:45.788Z,61.99
2023-04-11T06:15:13.934Z,61.64
2023-04-11T06:17:41.306Z,62.25
2023-04-11T06:20:10.303Z,62.10
2023-04-11T06:22:39.988Z,62.13
2023-04-11T06:25:07.939Z,61.54
2023-04-11T06:27:35.354Z,60.64
2023-04-11T06:30:02.681Z,60.14
2023-04-11T06:32:30.128Z,60.70
2023-04-11T06:34:57.486Z,60.05
2023-04-11T06:37:24.772Z,60.45
2023-04-11T06:39:52.057Z,59.88
2023-04-11T06:42:19.388Z,60.06
2023-04-11T06:44:46.756Z,58.55
2023-04-11T06:47:14.064Z,58.31
2023-04-11T06:49:41.403Z,56.71
2023-04-11T06:52:08.693Z,56.14
2023-04-11T06:54:36.200Z,55.38
2023-04-11T06:57:03.688Z,53.76
2023-04-11T06:59:31.129Z,53.58
2023-04-11T07:01:59.679Z,53.36
2023-04-11T07:04:27.361Z,53.28
2023-04-11T07:06:54.719Z,51.76
2023-04-11T07:09:22.508Z,51.71
2023-04-11T07:11:49.983Z,51.63
2023-04-11T07:14:17.332Z,49.39
2023-04-11T07:16:44.778Z,48.93
2023-04-11T07:19:12.218Z,46.53
2023-04-11T07:21:39.938Z,46.17
2023-04-11T07:24:07.684Z,45.76
2023-04-11T07:26:38.493Z,46.35
2023-04-11T07:29:07.123Z,45.06
2023-04-11T07:31:37.378Z,44.38
2023-04-11T07:34:04.750Z,43.67
2023-04-11T07:36:32.275Z,44.29
2023-04-11T07:39:00.205Z,43.19
2023-04-11T07:41:27.561Z,41.68
2023-04-11T07:43:55.190Z,41.10
2023-04-11T07:46:22.675Z,40.44
2023-04-11T07:48:49.987Z,39.61
2023-04-11T07:51:17.725Z,39.77
2023-04-11T07:53:45.245Z,38.43
2023-04-11T07:56:12.646Z,39.01
2023-04-11T07:58:40.031Z,38.70
2023-04-11T08:01:19.092Z,38.00
2023-04-11T08:03:46.615Z,35.80
2023-04-11T08:06:14.351Z,34.14
2023-04-11T08:08:41.668Z,34.23
2023-04-11T08:11:09.061Z,33.95
2023-04-11T08:13:36.613Z,34.99
2023-04-11T08:16:06.576Z,34.78
2023-04-11T08:18:35.254Z,35.55
2023-04-11T08:21:02.795Z,35.17
2023-04-11T08:23:30.219Z,35.22
2023-04-11T08:25:57.592Z,34.78
2023-04-11T08:28:24.933Z,34.15
2023-04-11T08:30:58.514Z,33.66
2023-04-11T08:33:26.181Z,33.96
2023-04-11T08:35:53.863Z,34.89
2023-04-11T08:38:21.442Z,36.12
2023-04-11T08:40:48.758Z,36.30
2023-04-11T08:43:16.587Z,37.08
2023-04-11T08:45:43.968Z,36.33
2023-04-11T08:48:12.547Z,35.95
2023-04-11T08:50:44.004Z,35.51
2023-04-11T08:53:22.132Z,35.92
2023-04-11T08:55:49.611Z,35.57
2023-04-11T08:58:18.056Z,36.01
2023-04-11T09:00:45.858Z,35.29
2023-04-11T09:03:16.544Z,35.24
2023-04-11T09:05:45.340Z,34.66
2023-04-11T09:08:15.443Z,35.06
2023-04-11T09:10:46.344Z,34.74
2023-04-11T09:13:25.685Z,34.08
2023-04-11T09:16:13.042Z,32.33
2023-04-11T09:18:46.633Z,33.21
2023-04-11T09:21:19.429Z,33.99
2023-04-11T09:23:46.919Z,34.58
2023-04-11T09:26:26.445Z,35.05
2023-04-11T09:28:54.097Z,35.62
2023-04-11T09:31:22.139Z,35.38
2023-04-11T09:33:58.527Z,35.64
2023-04-11T09:36:29.503Z,35.97
2023-04-11T09:38:57.915Z,36.21
2023-04-11T09:41:36.252Z,36.21
2023-04-11T09:44:03.897Z,36.23
2023-04-11T09:46:31.596Z,36.29
2023-04-11T09:49:01.806Z,35.77
2023-04-11T09:51:36.454Z,35.78
2023-04-11T09:54:06.044Z,35.99
2023-04-11T09:56:34.900Z,36.08
2023-04-11T09:59:04.316Z,35.70
2023-04-11T10:01:32.893Z,35.96
2023-04-11T10:04:01.486Z,36.23
2023-04-11T10:06:52.225Z,35.71
2023-04-11T10:09:20.200Z,35.09
2023-04-11T10:11:47.729Z,34.89
2023-04-11T10:14:36.690Z,35.61
2023-04-11T10:17:18.658Z,35.24
2023-04-11T10:19:49.519Z,35.28
2023-04-11T10:22:41.913Z,35.30
2023-04-11T10:25:15.739Z,36.45
2023-04-11T10:27:53.650Z,36.59
2023-04-11T10:30:39.617Z,36.04
2023-04-11T10:33:14.623Z,36.44
2023-04-11T10:36:06.590Z,36.44
2023-04-11T10:38:37.007Z,36.08
2023-04-11T10:41:17.484Z,36.35
2023-04-11T10:43:46.125Z,36.15
2023-04-11T10:46:17.143Z,36.76
2023-04-11T10:49:02.141Z,36.24
2023-04-11T10:51:31.546Z,36.25
2023-04-11T10:54:00.454Z,36.23
2023-04-11T10:56:40.290Z,36.00
2023-04-11T10:59:10.065Z,36.28
2023-04-11T11:04:11.075Z,36.59
2023-04-11T11:06:47.395Z,36.42
2023-04-11T11:09:28.403Z,36.42
2023-04-11T11:12:09.977Z,35.72
2023-04-11T11:14:38.057Z,36.01
2023-04-11T11:17:06.786Z,36.10
2023-04-11T11:19:35.802Z,36.89
2023-04-11T11:22:04.675Z,36.34
2023-04-11T11:24:32.696Z,36.37
2023-04-11T11:27:00.556Z,36.57
2023-04-11T11:29:33.928Z,36.24
2023-04-11T11:32:04.173Z,36.16
2023-04-11T11:34:33.529Z,36.36
2023-04-11T11:37:05.930Z,35.96
2023-04-11T11:39:34.480Z,36.69
2023-04-11T11:42:02.355Z,37.01
2023-04-11T11:44:31.371Z,36.48
2023-04-11T11:47:15.229Z,36.77
2023-04-11T11:49:52.820Z,37.47
2023-04-11T11:52:41.299Z,36.99
2023-04-11T11:55:28.672Z,37.71
2023-04-11T11:58:00.908Z,37.47
2023-04-11T12:00:30.515Z,38.14
2023-04-11T12:02:59.765Z,37.46
2023-04-11T12:05:32.955Z,37.20
2023-04-11T12:08:04.040Z,37.22
2023-04-11T12:10:43.030Z,37.33
2023-04-11T12:13:19.576Z,37.76
2023-04-11T12:15:57.863Z,37.75
2023-04-11T12:18:27.775Z,37.75
2023-04-11T12:20:55.636Z,37.31
2023-04-11T12:23:23.407Z,37.07
2023-04-11T12:25:51.101Z,37.27
2023-04-11T12:28:18.757Z,37.46
2023-04-11T12:30:46.221Z,37.23
2023-04-11T12:33:14.039Z,37.50
2023-04-11T12:35:41.653Z,38.13
2023-04-11T12:38:09.844Z,38.81
2023-04-11T12:40:38.621Z,38.42
2023-04-11T12:43:07.201Z,38.24
2023-04-11T12:45:34.610Z,38.79
2023-04-11T12:48:02.237Z,38.89
2023-04-11T12:50:29.671Z,38.99
2023-04-11T12:52:57.108Z,39.29
2023-04-11T12:55:24.797Z,39.10
2023-04-11T12:57:52.224Z,39.16
2023-04-11T13:00:19.875Z,39.19
2023-04-11T13:02:48.749Z,39.33
2023-04-11T13:05:17.121Z,40.20
2023-04-11T13:07:46.243Z,40.19
2023-04-11T13:10:16.197Z,40.19
2023-04-11T13:12:44.982Z,40.37
2023-04-11T13:15:14.495Z,40.44
2023-04-11T13:17:42.458Z,41.23
2023-04-11T13:20:11.171Z,41.78
2023-04-11T13:22:42.980Z,41.33
2023-04-11T13:25:11.070Z,41.83
2023-04-11T13:27:40.129Z,42.00
2023-04-11T13:30:09.887Z,42.45
2023-04-11T13:32:37.473Z,42.49
2023-04-11T13:35:05.908Z,42.78
2023-04-11T13:37:33.403Z,42.38
2023-04-11T13:40:01.124Z,42.61
2023-04-11T13:42:28.525Z,42.36
2023-04-11T13:44:55.847Z,42.38
2023-04-11T13:47:23.398Z,42.65
2023-04-11T13:49:50.887Z,42.42
2023-04-11T13:52:18.536Z,42.60
2023-04-11T13:54:46.018Z,42.70
2023-04-11T13:57:13.591Z,43.13
2023-04-11T13:59:41.140Z,42.64
2023-04-11T14:02:08.604Z,42.67
2023-04-11T14:04:36.427Z,43.13
2023-04-11T14:07:03.916Z,43.03
2023-04-11T14:09:31.504Z,43.13
2023-04-11T14:11:58.855Z,42.61
2023-04-11T14:14:26.362Z,42.94
2023-04-11T14:16:54.993Z,43.51
2023-04-11T14:19:24.822Z,43.75
2023-04-11T14:21:52.291Z,43.42
2023-04-11T14:24:22.153Z,43.60
2023-04-11T14:26:50.324Z,43.26
2023-04-11T14:29:19.075Z,43.60
2023-04-11T14:31:47.448Z,43.93
2023-04-11T14:34:14.971Z,44.45
2023-04-11T14:36:42.357Z,43.76
2023-04-11T14:39:09.906Z,43.94
2023-04-11T14:41:37.305Z,44.27
2023-04-11T14:44:04.818Z,43.79
2023-04-11T14:46:32.358Z,43.89
2023-04-11T14:48:59.911Z,43.49
2023-04-11T14:51:29.072Z,43.71
2023-04-11T14:53:56.813Z,44.18
2023-04-11T14:56:25.551Z,44.42
2023-04-11T14:58:53.095Z,44.73
2023-04-11T15:01:20.629Z,44.25
2023-04-11T15:03:48.954Z,44.23
2023-04-11T15:06:16.438Z,44.65
2023-04-11T15:08:43.880Z,44.81
2023-04-11T15:11:11.432Z,44.41
2023-04-11T15:13:39.017Z,45.01
2023-04-11T15:16:06.811Z,45.14
2023-04-11T15:18:35.127Z,44.87
2023-04-11T15:21:03.446Z,44.95
2023-04-11T15:23:31.184Z,45.10
2023-04-11T15:26:01.150Z,45.42
2023-04-11T15:28:34.271Z,45.27
2023-04-11T15:31:02.669Z,45.15
2023-04-11T15:33:31.769Z,45.64
2023-04-11T15:36:00.687Z,45.66
2023-04-11T15:38:28.965Z,45.66
2023-04-11T15:40:58.578Z,45.52
2023-04-11T15:43:26.454Z,46.10
2023-04-11T15:45:54.566Z,45.72
2023-04-11T15:48:22.055Z,46.17
2023-04-11T15:50:50.816Z,46.34
2023-04-11T15:53:18.312Z,46.42
2023-04-11T15:55:47.567Z,46.20
2023-04-11T15:58:15.816Z,46.35
2023-04-11T16:00:43.734Z,46.64
2023-04-11T16:03:11.338Z,46.65
2023-04-11T16:05:41.371Z,46.63
2023-04-11T16:08:08.895Z,46.94
2023-04-11T16:10:36.557Z,46.99
2023-04-11T16:13:03.962Z,46.89
2023-04-11T16:15:32.029Z,47.21
2023-04-11T16:17:59.409Z,46.77
2023-04-11T16:20:27.020Z,46.83
2023-04-11T16:22:54.463Z,46.22
2023-04-11T16:25:21.940Z,46.42
2023-04-11T16:27:51.105Z,46.49
2023-04-11T16:30:19.263Z,46.88
2023-04-11T16:32:46.881Z,47.16
2023-04-11T16:35:14.368Z,47.35
2023-04-11T16:37:41.740Z,47.44
2023-04-11T16:40:12.675Z,47.64
2023-04-11T16:42:40.454Z,47.87
2023-04-11T16:45:09.856Z,48.25
2023-04-11T16:47:37.852Z,48.01
2023-04-11T16:50:05.995Z,48.54
2023-04-11T16:52:33.894Z,48.85
2023-04-11T16:55:02.953Z,48.90
2023-04-11T16:57:33.187Z,48.69
2023-04-11T17:00:01.073Z,48.67
2023-04-11T17:02:29.640Z,48.85
2023-04-11T17:04:57.202Z,49.15
2023-04-11T17:07:25.017Z,49.43
2023-04-11T17:09:52.513Z,48.90
2023-04-11T17:12:19.949Z,48.72
2023-04-11T17:14:47.650Z,49.38
2023-04-11T17:17:15.154Z,49.43
2023-04-11T17:19:42.812Z,49.63
2023-04-11T17:22:11.704Z,49.86
2023-04-11T17:24:40.671Z,49.96
2023-04-11T17:27:08.176Z,49.86
2023-04-11T17:29:35.690Z,50.05
2023-04-11T17:32:04.052Z,50.08
2023-04-11T17:34:31.779Z,50.19
2023-04-11T17:36:59.221Z,50.60
2023-04-11T17:39:26.574Z,50.94
2023-04-11T17:41:53.946Z,51.16
2023-04-11T17:44:21.520Z,51.19
2023-04-11T17:46:49.002Z,51.16
2023-04-11T17:49:16.514Z,51.52
2023-04-11T17:51:52.460Z,51.35
2023-04-11T17:54:26.117Z,51.86
2023-04-11T17:56:53.923Z,51.70
2023-04-11T17:59:21.432Z,51.92
2023-04-11T18:01:48.907Z,52.07
2023-04-11T18:04:16.522Z,52.13
2023-04-11T18:06:46.215Z,52.21
2023-04-11T18:09:15.813Z,52.58
2023-04-11T18:11:44.146Z,52.89
2023-04-11T18:14:11.767Z,53.01
2023-04-11T18:16:40.433Z,53.18
2023-04-11T18:19:08.418Z,53.42
2023-04-11T18:21:35.966Z,53.52
2023-04-11T18:24:04.167Z,53.64
2023-04-11T18:26:31.683Z,53.82
2023-04-11T18:29:00.439Z,54.07
2023-04-11T18:31:28.281Z,54.28
2023-04-11T18:33:55.984Z,54.52
2023-04-11T18:36:24.648Z,54.43
2023-04-11T18:38:53.590Z,55.13
2023-04-11T18:41:21.367Z,55.11
2023-04-11T18:43:48.901Z,55.33
2023-04-11T18:46:16.629Z,55.56
2023-04-11T18:48:44.083Z,56.06
2023-04-11T18:51:11.523Z,55.64
2023-04-11T18:53:40.055Z,55.13
2023-04-11T18:56:08.010Z,55.18
2023-04-11T18:58:39.666Z,55.34
2023-04-11T19:01:15.614Z,55.30
2023-04-11T19:03:44.952Z,55.61
2023-04-11T19:06:14.020Z,55.46
2023-04-11T19:08:41.840Z,55.86
2023-04-11T19:11:09.753Z,56.61
2023-04-11T19:13:37.722Z,55.50
2023-04-11T19:16:05.950Z,56.34
2023-04-11T19:18:34.435Z,55.40
2023-04-11T19:21:05.057Z,55.79
2023-04-11T19:23:33.982Z,55.24
2023-04-11T19:26:02.396Z,55.41
2023-04-11T19:28:30.318Z,55.29
2023-04-11T19:30:57.830Z,55.92
2023-04-11T19:33:27.015Z,56.25
2023-04-11T19:35:55.859Z,56.63
2023-04-11T19:38:23.994Z,56.04
2023-04-11T19:40:52.357Z,56.11
2023-04-11T19:43:20.373Z,55.66
2023-04-11T19:45:50.054Z,56.06
2023-04-11T19:48:18.527Z,56.29
2023-04-11T19:50:47.510Z,56.54
2023-04-11T19:53:15.212Z,56.69
2023-04-11T19:55:59.672Z,56.97
2023-04-11T19:58:27.413Z,56.79
2023-04-11T20:00:55.470Z,57.21
2023-04-11T20:03:23.142Z,57.07
2023-04-11T20:05:50.897Z,56.87
2023-04-11T20:08:18.919Z,56.94
2023-04-11T20:10:46.834Z,57.13
2023-04-11T20:13:17.303Z,56.83
2023-04-11T20:15:44.892Z,56.56
2023-04-11T20:18:12.829Z,56.44
2023-04-11T20:20:41.449Z,55.72
2023-04-11T20:23:08.872Z,55.51
2023-04-11T20:25:36.435Z,55.48
2023-04-11T20:28:03.990Z,55.50
2023-04-11T20:30:32.455Z,54.32
2023-04-11T20:33:00.024Z,54.03
2023-04-11T20:35:27.585Z,52.61
2023-04-11T20:37:58.569Z,51.75
2023-04-11T20:40:31.495Z,51.51
2023-04-11T20:43:02.087Z,50.02
2023-04-11T20:45:30.929Z,49.50
2023-04-11T20:48:01.729Z,48.97
2023-04-11T20:50:33.380Z,48.33
2023-04-11T20:53:01.648Z,47.96
2023-04-11T20:55:30.066Z,47.50
2023-04-11T20:57:57.492Z,47.53
2023-04-11T21:00:26.116Z,47.65
2023-04-11T21:02:54.334Z,47.86
2023-04-11T21:05:25.576Z,47.74
2023-04-11T21:07:54.434Z,47.90
2023-04-11T21:10:22.182Z,48.07
2023-04-11T21:12:51.763Z,48.15
2023-04-11T21:15:20.565Z,48.67
2023-04-11T21:17:48.409Z,48.64
2023-04-11T21:20:20.095Z,48.77
2023-04-11T21:22:48.032Z,48.98
2023-04-11T21:25:16.442Z,48.91
2023-04-11T21:27:43.951Z,48.81
2023-04-11T21:30:12.594Z,48.58
2023-04-11T21:32:40.628Z,48.92
2023-04-11T21:35:09.773Z,48.80
2023-04-11T21:37:37.370Z,49.14
2023-04-11T21:40:05.560Z,48.94
2023-04-11T21:42:33.060Z,49.11
2023-04-11T21:45:00.502Z,49.24
2023-04-11T21:47:27.906Z,49.50
2023-04-11T21:49:55.482Z,49.70
2023-04-11T21:52:22.882Z,49.57
2023-04-11T21:54:50.309Z,49.58
2023-04-11T21:57:17.777Z,49.70
2023-04-11T21:59:45.431Z,50.09
2023-04-11T22:02:13.206Z,50.16
2023-04-11T22:04:55.837Z,50.57
2023-04-11T22:07:32.362Z,50.86
2023-04-11T22:10:09.147Z,51.15
2023-04-11T22:12:37.314Z,50.83
2023-04-11T22:15:06.624Z,51.26
2023-04-11T22:17:34.947Z,51.18
2023-04-11T22:20:03.745Z,51.13
2023-04-11T22:22:31.174Z,51.06
2023-04-11T22:24:59.926Z,51.28
2023-04-11T22:27:27.458Z,51.34
2023-04-11T22:29:59.701Z,51.10
2023-04-11T22:32:27.299Z,51.45
2023-04-11T22:34:54.750Z,51.11
2023-04-11T22:37:22.103Z,51.27
2023-04-11T22:39:49.937Z,50.84
2023-04-11T22:42:17.391Z,51.04
2023-04-11T22:44:44.888Z,50.96
2023-04-11T22:47:13.669Z,50.83
2023-04-11T22:49:42.085Z,50.87
2023-04-11T22:52:14.074Z,50.79
2023-04-11T22:54:42.552Z,50.49
2023-04-11T22:57:10.211Z,49.97
2023-04-11T22:59:37.788Z,50.01
2023-04-11T23:02:05.682Z,50.05
2023-04-11T23:04:33.254Z,50.14
2023-04-11T23:07:00.845Z,49.69
2023-04-11T23:09:28.436Z,49.72
2023-04-11T23:11:56.003Z,49.73
2023-04-11T23:14:24.450Z,49.75
2023-04-11T23:16:51.872Z,49.40
2023-04-11T23:19:19.925Z,49.65
2023-04-11T23:21:47.490Z,49.59
2023-04-11T23:24:15.940Z,49.24
2023-04-11T23:26:43.509Z,49.48
2023-04-11T23:29:11.246Z,48.70
2023-04-11T23:31:38.750Z,48.79
2023-04-11T23:34:07.079Z,48.89
2023-04-11T23:36:34.613Z,48.74
2023-04-11T23:39:02.277Z,48.61
2023-04-11T23:41:30.347Z,48.71
2023-04-11T23:43:58.026Z,48.42
2023-04-11T23:46:26.263Z,48.42
2023-04-11T23:48:53.930Z,48.60
2023-04-11T23:51:21.629Z,48.55
2023-04-11T23:53:49.805Z,48.30
2023-04-11T23:56:17.338Z,48.46
2023-04-11T23:58:44.877Z,48.81
